sensor_id;sensor_type;location;lat;lon;timestamp;P1;durP1;ratioP1;P2;durP2;ratioP2
10831;SDS011;5469;48.574;8.768;2022-12-18T00:01:41;1.77;;;1.57;;
10831;SDS011;5469;48.574;8.768;2022-12-18T00:04:18;1.90;;;1.80;;
10831;SDS011;5469;48.574;8.768;2022-12-18T00:06:55;0.43;;;0.43;;
10831;SDS011;5469;48.574;8.768;2022-12-18T00:09:31;3.40;;;1.40;;
10831;SDS011;5469;48.574;8.768;2022-12-18T00:12:07;2.00;;;1.63;;
10831;SDS011;5469;48.574;8.768;2022-12-18T00:14:42;0.30;;;0.30;;
10831;SDS011;5469;48.574;8.768;2022-12-18T00:17:17;2.37;;;1.90;;
10831;SDS011;5469;48.574;8.768;2022-12-18T00:19:52;2.00;;;1.80;;
10831;SDS011;5469;48.574;8.768;2022-12-18T00:22:27;2.03;;;1.83;;
10831;SDS011;5469;48.574;8.768;2022-12-18T00:25:04;8.20;;;1.10;;
10831;SDS011;5469;48.574;8.768;2022-12-18T00:27:40;1.23;;;1.17;;
10831;SDS011;5469;48.574;8.768;2022-12-18T00:30:15;1.57;;;1.47;;
10831;SDS011;5469;48.574;8.768;2022-12-18T00:32:50;2.77;;;0.93;;
10831;SDS011;5469;48.574;8.768;2022-12-18T00:35:25;1.17;;;1.17;;
10831;SDS011;5469;48.574;8.768;2022-12-18T00:38:00;2.67;;;2.17;;
10831;SDS011;5469;48.574;8.768;2022-12-18T00:40:39;1.53;;;1.43;;
10831;SDS011;5469;48.574;8.768;2022-12-18T00:43:14;1.70;;;1.60;;
10831;SDS011;5469;48.574;8.768;2022-12-18T00:45:50;5.43;;;2.47;;
10831;SDS011;5469;48.574;8.768;2022-12-18T00:48:25;1.50;;;1.13;;
10831;SDS011;5469;48.574;8.768;2022-12-18T00:51:00;0.90;;;0.90;;
10831;SDS011;5469;48.574;8.768;2022-12-18T00:53:35;1.53;;;1.43;;
10831;SDS011;5469;48.574;8.768;2022-12-18T00:56:11;1.77;;;1.67;;
10831;SDS011;5469;48.574;8.768;2022-12-18T00:58:46;3.20;;;0.97;;
10831;SDS011;5469;48.574;8.768;2022-12-18T01:01:21;1.67;;;1.57;;
10831;SDS011;5469;48.574;8.768;2022-12-18T01:03:56;1.10;;;1.10;;
10831;SDS011;5469;48.574;8.768;2022-12-18T01:06:31;2.70;;;2.50;;
10831;SDS011;5469;48.574;8.768;2022-12-18T01:09:06;0.77;;;0.77;;
10831;SDS011;5469;48.574;8.768;2022-12-18T01:11:43;2.50;;;2.27;;
10831;SDS011;5469;48.574;8.768;2022-12-18T01:14:17;0.93;;;0.93;;
10831;SDS011;5469;48.574;8.768;2022-12-18T01:16:52;4.70;;;3.13;;
10831;SDS011;5469;48.574;8.768;2022-12-18T01:19:27;0.97;;;0.97;;
10831;SDS011;5469;48.574;8.768;2022-12-18T01:22:02;2.77;;;1.90;;
10831;SDS011;5469;48.574;8.768;2022-12-18T01:24:37;1.47;;;1.47;;
10831;SDS011;5469;48.574;8.768;2022-12-18T01:27:14;2.13;;;1.93;;
10831;SDS011;5469;48.574;8.768;2022-12-18T01:29:50;4.37;;;2.10;;
10831;SDS011;5469;48.574;8.768;2022-12-18T01:32:25;0.83;;;0.83;;
10831;SDS011;5469;48.574;8.768;2022-12-18T01:35:02;1.03;;;0.70;;
10831;SDS011;5469;48.574;8.768;2022-12-18T01:37:37;0.83;;;0.83;;
10831;SDS011;5469;48.574;8.768;2022-12-18T01:40:12;1.60;;;0.70;;
10831;SDS011;5469;48.574;8.768;2022-12-18T01:42:50;0.87;;;0.57;;
10831;SDS011;5469;48.574;8.768;2022-12-18T01:45:27;2.13;;;2.00;;
10831;SDS011;5469;48.574;8.768;2022-12-18T01:48:04;1.83;;;1.47;;
10831;SDS011;5469;48.574;8.768;2022-12-18T01:50:42;1.20;;;1.10;;
10831;SDS011;5469;48.574;8.768;2022-12-18T01:53:17;0.80;;;0.80;;
10831;SDS011;5469;48.574;8.768;2022-12-18T01:55:56;1.13;;;1.13;;
10831;SDS011;5469;48.574;8.768;2022-12-18T01:58:35;0.40;;;0.40;;
10831;SDS011;5469;48.574;8.768;2022-12-18T02:01:14;1.20;;;1.10;;
10831;SDS011;5469;48.574;8.768;2022-12-18T02:03:49;0.60;;;0.47;;
10831;SDS011;5469;48.574;8.768;2022-12-18T02:06:27;1.47;;;1.37;;
10831;SDS011;5469;48.574;8.768;2022-12-18T02:09:07;1.10;;;1.10;;
10831;SDS011;5469;48.574;8.768;2022-12-18T02:11:48;1.30;;;1.20;;
10831;SDS011;5469;48.574;8.768;2022-12-18T02:14:34;0.70;;;0.70;;
10831;SDS011;5469;48.574;8.768;2022-12-18T02:17:13;5.20;;;0.90;;
10831;SDS011;5469;48.574;8.768;2022-12-18T02:19:56;0.90;;;0.90;;
10831;SDS011;5469;48.574;8.768;2022-12-18T02:22:40;1.20;;;1.20;;
10831;SDS011;5469;48.574;8.768;2022-12-18T02:25:30;1.50;;;1.40;;
10831;SDS011;5469;48.574;8.768;2022-12-18T02:28:15;1.70;;;1.43;;
10831;SDS011;5469;48.574;8.768;2022-12-18T02:30:53;0.50;;;0.50;;
10831;SDS011;5469;48.574;8.768;2022-12-18T02:33:34;1.23;;;1.23;;
10831;SDS011;5469;48.574;8.768;2022-12-18T02:36:12;0.97;;;0.97;;
10831;SDS011;5469;48.574;8.768;2022-12-18T02:38:52;1.50;;;0.60;;
10831;SDS011;5469;48.574;8.768;2022-12-18T02:41:29;3.90;;;1.13;;
10831;SDS011;5469;48.574;8.768;2022-12-18T02:44:08;1.90;;;1.80;;
10831;SDS011;5469;48.574;8.768;2022-12-18T02:46:45;2.40;;;0.70;;
10831;SDS011;5469;48.574;8.768;2022-12-18T02:49:28;0.70;;;0.70;;
10831;SDS011;5469;48.574;8.768;2022-12-18T02:52:15;0.83;;;0.83;;
10831;SDS011;5469;48.574;8.768;2022-12-18T02:55:00;1.50;;;1.40;;
10831;SDS011;5469;48.574;8.768;2022-12-18T02:57:46;0.13;;;0.13;;
10831;SDS011;5469;48.574;8.768;2022-12-18T03:00:26;0.53;;;0.53;;
10831;SDS011;5469;48.574;8.768;2022-12-18T03:03:07;0.43;;;0.20;;
10831;SDS011;5469;48.574;8.768;2022-12-18T03:05:50;1.23;;;1.23;;
10831;SDS011;5469;48.574;8.768;2022-12-18T03:08:31;0.60;;;0.60;;
10831;SDS011;5469;48.574;8.768;2022-12-18T03:11:11;0.43;;;0.43;;
10831;SDS011;5469;48.574;8.768;2022-12-18T03:14:07;2.20;;;1.20;;
10831;SDS011;5469;48.574;8.768;2022-12-18T03:16:46;1.03;;;1.03;;
10831;SDS011;5469;48.574;8.768;2022-12-18T03:19:26;0.37;;;0.37;;
10831;SDS011;5469;48.574;8.768;2022-12-18T03:22:05;1.43;;;1.33;;
10831;SDS011;5469;48.574;8.768;2022-12-18T03:24:43;6.70;;;1.20;;
10831;SDS011;5469;48.574;8.768;2022-12-18T03:27:21;0.23;;;0.23;;
10831;SDS011;5469;48.574;8.768;2022-12-18T03:30:02;1.53;;;1.43;;
10831;SDS011;5469;48.574;8.768;2022-12-18T03:32:44;1.37;;;1.33;;
10831;SDS011;5469;48.574;8.768;2022-12-18T03:35:26;0.80;;;0.80;;
10831;SDS011;5469;48.574;8.768;2022-12-18T03:38:05;1.00;;;1.00;;
10831;SDS011;5469;48.574;8.768;2022-12-18T03:40:54;0.10;;;0.10;;
10831;SDS011;5469;48.574;8.768;2022-12-18T03:43:35;0.43;;;0.43;;
10831;SDS011;5469;48.574;8.768;2022-12-18T03:46:17;0.37;;;0.37;;
10831;SDS011;5469;48.574;8.768;2022-12-18T03:49:01;1.53;;;0.77;;
10831;SDS011;5469;48.574;8.768;2022-12-18T03:51:42;2.10;;;1.87;;
10831;SDS011;5469;48.574;8.768;2022-12-18T03:54:24;3.53;;;1.67;;
10831;SDS011;5469;48.574;8.768;2022-12-18T03:57:03;0.63;;;0.37;;
10831;SDS011;5469;48.574;8.768;2022-12-18T03:59:44;1.17;;;0.90;;
10831;SDS011;5469;48.574;8.768;2022-12-18T04:02:23;7.13;;;2.83;;
10831;SDS011;5469;48.574;8.768;2022-12-18T04:05:02;1.40;;;1.30;;
10831;SDS011;5469;48.574;8.768;2022-12-18T04:07:40;4.27;;;2.17;;
10831;SDS011;5469;48.574;8.768;2022-12-18T04:10:16;0.63;;;0.63;;
10831;SDS011;5469;48.574;8.768;2022-12-18T04:12:57;2.63;;;2.43;;
10831;SDS011;5469;48.574;8.768;2022-12-18T04:15:33;1.77;;;1.67;;
10831;SDS011;5469;48.574;8.768;2022-12-18T04:18:10;1.60;;;0.83;;
10831;SDS011;5469;48.574;8.768;2022-12-18T04:20:46;3.30;;;1.60;;
10831;SDS011;5469;48.574;8.768;2022-12-18T04:23:21;2.00;;;1.80;;
10831;SDS011;5469;48.574;8.768;2022-12-18T04:25:56;0.73;;;0.67;;
10831;SDS011;5469;48.574;8.768;2022-12-18T04:28:31;2.40;;;2.20;;
10831;SDS011;5469;48.574;8.768;2022-12-18T04:31:06;3.40;;;2.10;;
10831;SDS011;5469;48.574;8.768;2022-12-18T04:33:41;2.37;;;2.17;;
10831;SDS011;5469;48.574;8.768;2022-12-18T04:36:17;1.87;;;1.37;;
10831;SDS011;5469;48.574;8.768;2022-12-18T04:38:52;0.63;;;0.63;;
10831;SDS011;5469;48.574;8.768;2022-12-18T04:41:28;2.40;;;1.77;;
10831;SDS011;5469;48.574;8.768;2022-12-18T04:44:03;0.93;;;0.93;;
10831;SDS011;5469;48.574;8.768;2022-12-18T04:46:38;1.83;;;1.30;;
10831;SDS011;5469;48.574;8.768;2022-12-18T04:49:13;0.23;;;0.23;;
10831;SDS011;5469;48.574;8.768;2022-12-18T04:51:49;1.80;;;1.33;;
10831;SDS011;5469;48.574;8.768;2022-12-18T04:54:25;1.03;;;1.03;;
10831;SDS011;5469;48.574;8.768;2022-12-18T04:57:00;1.00;;;1.00;;
10831;SDS011;5469;48.574;8.768;2022-12-18T04:59:35;0.53;;;0.53;;
10831;SDS011;5469;48.574;8.768;2022-12-18T05:02:10;3.57;;;3.27;;
10831;SDS011;5469;48.574;8.768;2022-12-18T05:04:45;3.60;;;0.87;;
10831;SDS011;5469;48.574;8.768;2022-12-18T05:07:21;1.57;;;1.00;;
10831;SDS011;5469;48.574;8.768;2022-12-18T05:09:56;1.50;;;1.43;;
10831;SDS011;5469;48.574;8.768;2022-12-18T05:12:31;0.90;;;0.90;;
10831;SDS011;5469;48.574;8.768;2022-12-18T05:15:27;0.93;;;0.93;;
10831;SDS011;5469;48.574;8.768;2022-12-18T05:18:04;2.47;;;0.63;;
10831;SDS011;5469;48.574;8.768;2022-12-18T05:20:40;1.27;;;0.57;;
10831;SDS011;5469;48.574;8.768;2022-12-18T05:23:16;3.47;;;1.70;;
10831;SDS011;5469;48.574;8.768;2022-12-18T05:25:53;1.07;;;1.07;;
10831;SDS011;5469;48.574;8.768;2022-12-18T05:28:31;0.83;;;0.83;;
10831;SDS011;5469;48.574;8.768;2022-12-18T05:31:07;0.07;;;0.07;;
10831;SDS011;5469;48.574;8.768;2022-12-18T05:33:42;2.83;;;1.07;;
10831;SDS011;5469;48.574;8.768;2022-12-18T05:36:17;1.70;;;1.60;;
10831;SDS011;5469;48.574;8.768;2022-12-18T05:38:54;0.63;;;0.63;;
10831;SDS011;5469;48.574;8.768;2022-12-18T05:41:29;1.00;;;0.37;;
10831;SDS011;5469;48.574;8.768;2022-12-18T05:44:03;0.20;;;0.20;;
10831;SDS011;5469;48.574;8.768;2022-12-18T05:46:38;0.40;;;0.40;;
10831;SDS011;5469;48.574;8.768;2022-12-18T05:49:13;3.30;;;1.20;;
10831;SDS011;5469;48.574;8.768;2022-12-18T05:51:48;1.90;;;1.57;;
10831;SDS011;5469;48.574;8.768;2022-12-18T05:54:26;2.67;;;1.07;;
10831;SDS011;5469;48.574;8.768;2022-12-18T05:57:02;0.60;;;0.60;;
10831;SDS011;5469;48.574;8.768;2022-12-18T05:59:37;0.20;;;0.20;;
10831;SDS011;5469;48.574;8.768;2022-12-18T06:02:12;3.67;;;2.30;;
10831;SDS011;5469;48.574;8.768;2022-12-18T06:04:47;0.93;;;0.93;;
10831;SDS011;5469;48.574;8.768;2022-12-18T06:07:22;2.80;;;1.17;;
10831;SDS011;5469;48.574;8.768;2022-12-18T06:09:58;0.47;;;0.47;;
10831;SDS011;5469;48.574;8.768;2022-12-18T06:12:33;0.83;;;0.83;;
10831;SDS011;5469;48.574;8.768;2022-12-18T06:15:08;1.13;;;0.97;;
10831;SDS011;5469;48.574;8.768;2022-12-18T06:17:44;4.93;;;1.47;;
10831;SDS011;5469;48.574;8.768;2022-12-18T06:20:19;1.03;;;0.93;;
10831;SDS011;5469;48.574;8.768;2022-12-18T06:22:55;4.53;;;2.07;;
10831;SDS011;5469;48.574;8.768;2022-12-18T06:25:31;1.83;;;1.77;;
10831;SDS011;5469;48.574;8.768;2022-12-18T06:28:09;14.43;;;2.00;;
10831;SDS011;5469;48.574;8.768;2022-12-18T06:30:44;0.97;;;0.93;;
10831;SDS011;5469;48.574;8.768;2022-12-18T06:33:20;1.43;;;1.37;;
10831;SDS011;5469;48.574;8.768;2022-12-18T06:35:59;1.40;;;1.30;;
10831;SDS011;5469;48.574;8.768;2022-12-18T06:38:37;1.40;;;1.30;;
10831;SDS011;5469;48.574;8.768;2022-12-18T06:41:16;3.37;;;2.43;;
10831;SDS011;5469;48.574;8.768;2022-12-18T06:43:53;0.40;;;0.40;;
10831;SDS011;5469;48.574;8.768;2022-12-18T06:46:29;1.37;;;0.97;;
10831;SDS011;5469;48.574;8.768;2022-12-18T06:49:04;2.10;;;1.60;;
10831;SDS011;5469;48.574;8.768;2022-12-18T06:51:40;1.60;;;1.50;;
10831;SDS011;5469;48.574;8.768;2022-12-18T06:54:15;3.67;;;3.37;;
10831;SDS011;5469;48.574;8.768;2022-12-18T06:56:51;1.13;;;1.13;;
10831;SDS011;5469;48.574;8.768;2022-12-18T06:59:26;1.43;;;1.30;;
10831;SDS011;5469;48.574;8.768;2022-12-18T07:02:01;2.67;;;1.70;;
10831;SDS011;5469;48.574;8.768;2022-12-18T07:04:36;1.17;;;1.17;;
10831;SDS011;5469;48.574;8.768;2022-12-18T07:07:12;1.23;;;0.80;;
10831;SDS011;5469;48.574;8.768;2022-12-18T07:09:48;2.03;;;1.80;;
10831;SDS011;5469;48.574;8.768;2022-12-18T07:12:25;1.70;;;1.23;;
10831;SDS011;5469;48.574;8.768;2022-12-18T07:15:02;1.00;;;0.93;;
10831;SDS011;5469;48.574;8.768;2022-12-18T07:17:37;3.50;;;2.37;;
10831;SDS011;5469;48.574;8.768;2022-12-18T07:20:12;7.00;;;1.40;;
10831;SDS011;5469;48.574;8.768;2022-12-18T07:22:47;1.00;;;0.90;;
10831;SDS011;5469;48.574;8.768;2022-12-18T07:25:22;4.60;;;1.67;;
10831;SDS011;5469;48.574;8.768;2022-12-18T07:27:59;0.77;;;0.70;;
10831;SDS011;5469;48.574;8.768;2022-12-18T07:30:36;1.67;;;1.53;;
10831;SDS011;5469;48.574;8.768;2022-12-18T07:33:11;1.13;;;1.03;;
10831;SDS011;5469;48.574;8.768;2022-12-18T07:35:46;1.30;;;1.10;;
10831;SDS011;5469;48.574;8.768;2022-12-18T07:38:21;0.93;;;0.37;;
10831;SDS011;5469;48.574;8.768;2022-12-18T07:40:59;0.70;;;0.70;;
10831;SDS011;5469;48.574;8.768;2022-12-18T07:43:37;2.53;;;2.37;;
10831;SDS011;5469;48.574;8.768;2022-12-18T07:46:13;4.47;;;2.03;;
10831;SDS011;5469;48.574;8.768;2022-12-18T07:48:49;1.20;;;0.83;;
10831;SDS011;5469;48.574;8.768;2022-12-18T07:51:24;5.37;;;1.07;;
10831;SDS011;5469;48.574;8.768;2022-12-18T07:53:59;4.77;;;1.87;;
10831;SDS011;5469;48.574;8.768;2022-12-18T07:56:34;1.07;;;1.03;;
10831;SDS011;5469;48.574;8.768;2022-12-18T07:59:10;1.23;;;1.20;;
10831;SDS011;5469;48.574;8.768;2022-12-18T08:01:45;1.50;;;1.50;;
10831;SDS011;5469;48.574;8.768;2022-12-18T08:04:20;0.60;;;0.50;;
10831;SDS011;5469;48.574;8.768;2022-12-18T08:06:55;0.93;;;0.93;;
10831;SDS011;5469;48.574;8.768;2022-12-18T08:09:30;1.27;;;1.20;;
10831;SDS011;5469;48.574;8.768;2022-12-18T08:12:05;0.70;;;0.60;;
10831;SDS011;5469;48.574;8.768;2022-12-18T08:14:42;2.87;;;1.57;;
10831;SDS011;5469;48.574;8.768;2022-12-18T08:17:17;1.07;;;0.90;;
10831;SDS011;5469;48.574;8.768;2022-12-18T08:19:53;0.47;;;0.47;;
10831;SDS011;5469;48.574;8.768;2022-12-18T08:22:28;1.40;;;1.40;;
10831;SDS011;5469;48.574;8.768;2022-12-18T08:25:04;0.63;;;0.63;;
10831;SDS011;5469;48.574;8.768;2022-12-18T08:27:40;2.13;;;2.03;;
10831;SDS011;5469;48.574;8.768;2022-12-18T08:30:17;0.90;;;0.90;;
10831;SDS011;5469;48.574;8.768;2022-12-18T08:32:52;5.17;;;2.27;;
10831;SDS011;5469;48.574;8.768;2022-12-18T08:35:27;1.97;;;0.97;;
10831;SDS011;5469;48.574;8.768;2022-12-18T08:38:02;1.50;;;1.40;;
10831;SDS011;5469;48.574;8.768;2022-12-18T08:40:37;0.83;;;0.83;;
10831;SDS011;5469;48.574;8.768;2022-12-18T08:43:12;0.87;;;0.87;;
10831;SDS011;5469;48.574;8.768;2022-12-18T08:46:06;0.47;;;0.47;;
10831;SDS011;5469;48.574;8.768;2022-12-18T08:48:41;1.07;;;1.07;;
10831;SDS011;5469;48.574;8.768;2022-12-18T08:51:18;0.20;;;0.20;;
10831;SDS011;5469;48.574;8.768;2022-12-18T08:53:53;1.47;;;1.43;;
10831;SDS011;5469;48.574;8.768;2022-12-18T08:56:28;0.20;;;0.20;;
10831;SDS011;5469;48.574;8.768;2022-12-18T08:59:03;0.70;;;0.70;;
10831;SDS011;5469;48.574;8.768;2022-12-18T09:01:39;2.73;;;1.50;;
10831;SDS011;5469;48.574;8.768;2022-12-18T09:04:15;1.50;;;1.13;;
10831;SDS011;5469;48.574;8.768;2022-12-18T09:06:50;0.40;;;0.40;;
10831;SDS011;5469;48.574;8.768;2022-12-18T09:09:28;0.00;;;0.00;;
10831;SDS011;5469;48.574;8.768;2022-12-18T09:12:03;1.63;;;1.43;;
10831;SDS011;5469;48.574;8.768;2022-12-18T09:14:38;0.27;;;0.27;;
10831;SDS011;5469;48.574;8.768;2022-12-18T09:17:14;5.27;;;0.83;;
10831;SDS011;5469;48.574;8.768;2022-12-18T09:19:49;0.97;;;0.97;;
10831;SDS011;5469;48.574;8.768;2022-12-18T09:22:24;0.97;;;0.97;;
10831;SDS011;5469;48.574;8.768;2022-12-18T09:24:59;2.53;;;2.00;;
10831;SDS011;5469;48.574;8.768;2022-12-18T09:27:34;0.53;;;0.53;;
10831;SDS011;5469;48.574;8.768;2022-12-18T09:30:09;2.67;;;0.77;;
10831;SDS011;5469;48.574;8.768;2022-12-18T09:32:47;1.00;;;0.80;;
10831;SDS011;5469;48.574;8.768;2022-12-18T09:35:21;1.07;;;1.07;;
10831;SDS011;5469;48.574;8.768;2022-12-18T09:37:56;0.60;;;0.40;;
10831;SDS011;5469;48.574;8.768;2022-12-18T09:40:32;0.43;;;0.43;;
10831;SDS011;5469;48.574;8.768;2022-12-18T09:43:13;2.83;;;1.27;;
10831;SDS011;5469;48.574;8.768;2022-12-18T09:45:51;0.77;;;0.77;;
10831;SDS011;5469;48.574;8.768;2022-12-18T09:48:34;2.70;;;1.27;;
10831;SDS011;5469;48.574;8.768;2022-12-18T09:51:14;1.27;;;1.07;;
10831;SDS011;5469;48.574;8.768;2022-12-18T09:53:53;3.37;;;1.77;;
10831;SDS011;5469;48.574;8.768;2022-12-18T09:56:35;0.60;;;0.60;;
10831;SDS011;5469;48.574;8.768;2022-12-18T09:59:18;0.50;;;0.50;;
10831;SDS011;5469;48.574;8.768;2022-12-18T10:01:56;1.73;;;1.20;;
10831;SDS011;5469;48.574;8.768;2022-12-18T10:04:33;3.03;;;0.80;;
10831;SDS011;5469;48.574;8.768;2022-12-18T10:07:09;2.60;;;1.23;;
10831;SDS011;5469;48.574;8.768;2022-12-18T10:09:53;0.70;;;0.70;;
10831;SDS011;5469;48.574;8.768;2022-12-18T10:12:36;1.33;;;1.23;;
10831;SDS011;5469;48.574;8.768;2022-12-18T10:15:16;4.43;;;1.83;;
10831;SDS011;5469;48.574;8.768;2022-12-18T10:17:58;3.07;;;2.83;;
10831;SDS011;5469;48.574;8.768;2022-12-18T10:20:40;0.33;;;0.33;;
10831;SDS011;5469;48.574;8.768;2022-12-18T10:23:21;4.23;;;2.63;;
10831;SDS011;5469;48.574;8.768;2022-12-18T10:26:06;0.73;;;0.40;;
10831;SDS011;5469;48.574;8.768;2022-12-18T10:28:43;2.63;;;1.30;;
10831;SDS011;5469;48.574;8.768;2022-12-18T10:31:20;7.77;;;2.70;;
10831;SDS011;5469;48.574;8.768;2022-12-18T10:33:56;3.73;;;1.37;;
10831;SDS011;5469;48.574;8.768;2022-12-18T10:36:32;2.60;;;2.43;;
10831;SDS011;5469;48.574;8.768;2022-12-18T10:39:14;2.37;;;0.80;;
10831;SDS011;5469;48.574;8.768;2022-12-18T10:41:56;2.83;;;1.60;;
10831;SDS011;5469;48.574;8.768;2022-12-18T10:44:43;1.33;;;1.13;;
10831;SDS011;5469;48.574;8.768;2022-12-18T10:47:18;2.83;;;2.50;;
10831;SDS011;5469;48.574;8.768;2022-12-18T10:49:53;1.40;;;1.30;;
10831;SDS011;5469;48.574;8.768;2022-12-18T10:52:30;2.17;;;2.07;;
10831;SDS011;5469;48.574;8.768;2022-12-18T10:55:11;2.43;;;1.70;;
10831;SDS011;5469;48.574;8.768;2022-12-18T10:57:51;4.00;;;1.13;;
10831;SDS011;5469;48.574;8.768;2022-12-18T11:00:26;2.97;;;2.73;;
10831;SDS011;5469;48.574;8.768;2022-12-18T11:03:07;1.70;;;1.60;;
10831;SDS011;5469;48.574;8.768;2022-12-18T11:06:05;6.47;;;2.93;;
10831;SDS011;5469;48.574;8.768;2022-12-18T11:11:21;2.70;;;1.53;;
10831;SDS011;5469;48.574;8.768;2022-12-18T11:13:59;3.73;;;1.93;;
10831;SDS011;5469;48.574;8.768;2022-12-18T11:16:42;2.00;;;1.63;;
10831;SDS011;5469;48.574;8.768;2022-12-18T11:19:21;4.00;;;2.33;;
10831;SDS011;5469;48.574;8.768;2022-12-18T11:22:03;5.67;;;1.80;;
10831;SDS011;5469;48.574;8.768;2022-12-18T11:24:52;3.93;;;3.37;;
10831;SDS011;5469;48.574;8.768;2022-12-18T11:27:32;3.67;;;3.33;;
10831;SDS011;5469;48.574;8.768;2022-12-18T11:30:08;3.73;;;3.23;;
10831;SDS011;5469;48.574;8.768;2022-12-18T11:32:55;2.37;;;2.10;;
10831;SDS011;5469;48.574;8.768;2022-12-18T11:35:38;4.40;;;2.87;;
10831;SDS011;5469;48.574;8.768;2022-12-18T11:38:19;4.27;;;2.60;;
10831;SDS011;5469;48.574;8.768;2022-12-18T11:40:58;3.63;;;2.40;;
10831;SDS011;5469;48.574;8.768;2022-12-18T11:43:38;6.43;;;2.40;;
10831;SDS011;5469;48.574;8.768;2022-12-18T11:46:23;7.73;;;3.57;;
10831;SDS011;5469;48.574;8.768;2022-12-18T11:49:06;4.93;;;4.00;;
10831;SDS011;5469;48.574;8.768;2022-12-18T11:51:47;12.27;;;3.50;;
10831;SDS011;5469;48.574;8.768;2022-12-18T11:54:27;3.27;;;2.97;;
10831;SDS011;5469;48.574;8.768;2022-12-18T11:57:06;5.37;;;2.43;;
10831;SDS011;5469;48.574;8.768;2022-12-18T11:59:50;8.77;;;4.10;;
10831;SDS011;5469;48.574;8.768;2022-12-18T12:02:40;4.30;;;2.03;;
10831;SDS011;5469;48.574;8.768;2022-12-18T12:05:26;3.33;;;2.67;;
10831;SDS011;5469;48.574;8.768;2022-12-18T12:08:06;4.90;;;2.60;;
10831;SDS011;5469;48.574;8.768;2022-12-18T12:10:52;5.83;;;3.33;;
10831;SDS011;5469;48.574;8.768;2022-12-18T12:13:40;2.67;;;2.40;;
10831;SDS011;5469;48.574;8.768;2022-12-18T12:16:22;5.43;;;2.57;;
10831;SDS011;5469;48.574;8.768;2022-12-18T12:19:06;7.00;;;2.70;;
10831;SDS011;5469;48.574;8.768;2022-12-18T12:21:52;6.77;;;3.90;;
10831;SDS011;5469;48.574;8.768;2022-12-18T12:24:38;3.77;;;2.60;;
10831;SDS011;5469;48.574;8.768;2022-12-18T12:27:22;2.87;;;1.90;;
10831;SDS011;5469;48.574;8.768;2022-12-18T12:30:07;5.20;;;2.53;;
10831;SDS011;5469;48.574;8.768;2022-12-18T12:32:49;5.20;;;2.03;;
10831;SDS011;5469;48.574;8.768;2022-12-18T12:35:36;5.63;;;2.57;;
10831;SDS011;5469;48.574;8.768;2022-12-18T12:38:18;5.73;;;2.70;;
10831;SDS011;5469;48.574;8.768;2022-12-18T12:40:58;5.40;;;3.93;;
10831;SDS011;5469;48.574;8.768;2022-12-18T12:43:37;5.30;;;3.17;;
10831;SDS011;5469;48.574;8.768;2022-12-18T12:46:18;5.20;;;3.30;;
10831;SDS011;5469;48.574;8.768;2022-12-18T12:48:56;8.40;;;2.30;;
10831;SDS011;5469;48.574;8.768;2022-12-18T12:51:34;6.07;;;3.90;;
10831;SDS011;5469;48.574;8.768;2022-12-18T12:54:14;5.07;;;2.33;;
10831;SDS011;5469;48.574;8.768;2022-12-18T12:56:54;6.20;;;2.50;;
10831;SDS011;5469;48.574;8.768;2022-12-18T12:59:36;5.30;;;2.20;;
10831;SDS011;5469;48.574;8.768;2022-12-18T13:02:19;2.47;;;1.90;;
10831;SDS011;5469;48.574;8.768;2022-12-18T13:05:04;3.83;;;1.90;;
10831;SDS011;5469;48.574;8.768;2022-12-18T13:07:50;8.00;;;2.43;;
10831;SDS011;5469;48.574;8.768;2022-12-18T13:10:33;8.13;;;4.10;;
10831;SDS011;5469;48.574;8.768;2022-12-18T13:13:11;6.70;;;3.63;;
10831;SDS011;5469;48.574;8.768;2022-12-18T13:15:49;9.73;;;4.80;;
10831;SDS011;5469;48.574;8.768;2022-12-18T13:18:37;10.73;;;4.43;;
10831;SDS011;5469;48.574;8.768;2022-12-18T13:21:23;7.53;;;4.60;;
10831;SDS011;5469;48.574;8.768;2022-12-18T13:24:14;9.07;;;4.87;;
10831;SDS011;5469;48.574;8.768;2022-12-18T13:26:55;8.97;;;5.33;;
10831;SDS011;5469;48.574;8.768;2022-12-18T13:29:40;7.77;;;4.30;;
10831;SDS011;5469;48.574;8.768;2022-12-18T13:32:21;9.40;;;4.40;;
10831;SDS011;5469;48.574;8.768;2022-12-18T13:38:21;5.17;;;3.43;;
10831;SDS011;5469;48.574;8.768;2022-12-18T13:41:15;16.43;;;4.80;;
10831;SDS011;5469;48.574;8.768;2022-12-18T13:43:55;11.37;;;4.20;;
10831;SDS011;5469;48.574;8.768;2022-12-18T13:46:43;8.93;;;4.13;;
10831;SDS011;5469;48.574;8.768;2022-12-18T13:49:21;6.80;;;4.20;;
10831;SDS011;5469;48.574;8.768;2022-12-18T13:51:59;12.30;;;4.33;;
10831;SDS011;5469;48.574;8.768;2022-12-18T13:54:44;6.17;;;3.17;;
10831;SDS011;5469;48.574;8.768;2022-12-18T13:57:27;8.37;;;3.83;;
10831;SDS011;5469;48.574;8.768;2022-12-18T14:00:17;4.37;;;3.30;;
10831;SDS011;5469;48.574;8.768;2022-12-18T14:02:58;4.23;;;2.23;;
10831;SDS011;5469;48.574;8.768;2022-12-18T14:05:34;5.23;;;2.63;;
10831;SDS011;5469;48.574;8.768;2022-12-18T14:08:11;6.20;;;2.87;;
10831;SDS011;5469;48.574;8.768;2022-12-18T14:10:49;6.67;;;3.53;;
10831;SDS011;5469;48.574;8.768;2022-12-18T14:13:26;9.47;;;5.30;;
10831;SDS011;5469;48.574;8.768;2022-12-18T14:16:06;10.97;;;3.87;;
10831;SDS011;5469;48.574;8.768;2022-12-18T14:18:48;10.70;;;5.60;;
10831;SDS011;5469;48.574;8.768;2022-12-18T14:21:26;10.33;;;5.50;;
10831;SDS011;5469;48.574;8.768;2022-12-18T14:24:05;10.17;;;5.80;;
10831;SDS011;5469;48.574;8.768;2022-12-18T14:26:47;7.47;;;3.57;;
10831;SDS011;5469;48.574;8.768;2022-12-18T14:29:24;10.23;;;5.57;;
10831;SDS011;5469;48.574;8.768;2022-12-18T14:32:04;7.63;;;4.43;;
10831;SDS011;5469;48.574;8.768;2022-12-18T14:34:43;11.43;;;3.70;;
10831;SDS011;5469;48.574;8.768;2022-12-18T14:37:20;8.47;;;3.07;;
10831;SDS011;5469;48.574;8.768;2022-12-18T14:39:57;8.47;;;4.20;;
10831;SDS011;5469;48.574;8.768;2022-12-18T14:42:35;8.57;;;3.63;;
10831;SDS011;5469;48.574;8.768;2022-12-18T14:48:07;16.13;;;7.90;;
10831;SDS011;5469;48.574;8.768;2022-12-18T14:50:54;23.50;;;11.37;;
10831;SDS011;5469;48.574;8.768;2022-12-18T14:53:34;22.50;;;9.17;;
10831;SDS011;5469;48.574;8.768;2022-12-18T14:56:15;14.80;;;10.13;;
10831;SDS011;5469;48.574;8.768;2022-12-18T14:58:55;13.60;;;7.77;;
10831;SDS011;5469;48.574;8.768;2022-12-18T15:01:32;15.47;;;6.03;;
10831;SDS011;5469;48.574;8.768;2022-12-18T15:04:19;10.27;;;5.23;;
10831;SDS011;5469;48.574;8.768;2022-12-18T15:07:05;10.33;;;5.80;;
10831;SDS011;5469;48.574;8.768;2022-12-18T15:10:00;13.43;;;5.00;;
10831;SDS011;5469;48.574;8.768;2022-12-18T15:12:42;17.70;;;7.60;;
10831;SDS011;5469;48.574;8.768;2022-12-18T15:18:23;13.07;;;5.47;;
10831;SDS011;5469;48.574;8.768;2022-12-18T15:21:08;14.87;;;5.30;;
10831;SDS011;5469;48.574;8.768;2022-12-18T15:23:49;11.67;;;5.40;;
10831;SDS011;5469;48.574;8.768;2022-12-18T15:26:25;8.83;;;5.03;;
10831;SDS011;5469;48.574;8.768;2022-12-18T15:29:15;9.17;;;4.50;;
10831;SDS011;5469;48.574;8.768;2022-12-18T15:32:00;8.23;;;4.27;;
10831;SDS011;5469;48.574;8.768;2022-12-18T15:34:38;11.20;;;4.27;;
10831;SDS011;5469;48.574;8.768;2022-12-18T15:37:13;8.33;;;3.33;;
10831;SDS011;5469;48.574;8.768;2022-12-18T15:39:48;6.67;;;2.83;;
10831;SDS011;5469;48.574;8.768;2022-12-18T15:42:23;5.03;;;3.90;;
10831;SDS011;5469;48.574;8.768;2022-12-18T15:45:15;4.27;;;2.07;;
10831;SDS011;5469;48.574;8.768;2022-12-18T15:47:52;7.47;;;2.37;;
10831;SDS011;5469;48.574;8.768;2022-12-18T15:50:28;7.20;;;2.63;;
10831;SDS011;5469;48.574;8.768;2022-12-18T15:53:02;5.87;;;3.30;;
10831;SDS011;5469;48.574;8.768;2022-12-18T15:55:37;4.83;;;2.50;;
10831;SDS011;5469;48.574;8.768;2022-12-18T15:58:30;4.07;;;2.13;;
10831;SDS011;5469;48.574;8.768;2022-12-18T16:01:05;5.27;;;2.67;;
10831;SDS011;5469;48.574;8.768;2022-12-18T16:03:44;4.87;;;2.30;;
10831;SDS011;5469;48.574;8.768;2022-12-18T16:06:20;2.00;;;1.47;;
10831;SDS011;5469;48.574;8.768;2022-12-18T16:08:58;2.97;;;1.53;;
10831;SDS011;5469;48.574;8.768;2022-12-18T16:11:34;10.07;;;1.97;;
10831;SDS011;5469;48.574;8.768;2022-12-18T16:14:12;3.50;;;1.53;;
10831;SDS011;5469;48.574;8.768;2022-12-18T16:16:51;7.47;;;2.90;;
10831;SDS011;5469;48.574;8.768;2022-12-18T16:19:29;4.37;;;2.97;;
10831;SDS011;5469;48.574;8.768;2022-12-18T16:22:05;5.93;;;1.93;;